aviador You're here:

OIMB Decoded Metar

BIRJAND in IRAN
Report Time2018-06-21 21:00:00
UTC Time2018-06-21 21:49:56
Flight Rules vfr VFR
Wind100° at 10 kt
W.Decomp.*RWY 10: 10.0 kt HW 0.3 kt LCW
RWY 08: 9.5 kt HW 3.1 kt RCW
W.Rank100° ranks 5
Current wind is above 100° avg. (7.3)
Visibility9999 m
Phenomena:N/A
Clouds:N/A
Expected CloudBase > 11,200 ft AGL from Temp-Dew spread
CeilingNone
Temp24°C (ISA +19)
Dew Point-4°C (15% RH)
AAT17.9°C
QNH1015 hPa
Density Alt7,031 ft
Elevation4,892 ft
Report Wrong Elevation
Raw Report
METAR OIMB 212100Z 10010KT CAVOK 24/M04 Q1015=

Extra information for OIMB:More info

Metar Taf Metar & Taf Last 4 Metars F.Rules Stats Wind Profile Meteogram Temp Stats Airport Information Weather charts Add Link Nearby VenuesMetar ALERT Operation Metar Decoded Social comments